Time;durP1;ratioP1;P1;durP2;ratioP2;P2;SDS_P1;SDS_P2;PMS_P1;PMS_P2;Temp;Humidity;BMP_temperature;BMP_pressure;BME280_temperature;BME280_humidity;BME280_pressure;Samples;Min_cycle;Max_cycle;Signal;HPM_P1;HPM_P2
2022/04/15 00:02:03;;;;;;;10.82;9.15;;;;;;;10.83;58.72;100555.34;10324575;28;20054;-82
2022/04/15 00:07:05;;;;;;;11.70;9.15;;;;;;;10.75;59.08;100561.91;10324082;28;20054;-83
2022/04/15 00:12:10;;;;;;;11.57;9.27;;;;;;;10.68;59.33;100560.53;10323513;28;20054;-82
2022/04/15 00:17:12;;;;;;;13.68;9.77;;;;;;;10.68;59.32;100556.16;10324550;28;20053;-82
2022/04/15 00:22:14;;;;;;;12.18;9.63;;;;;;;10.64;59.43;100554.59;10324405;28;20070;-82
2022/04/15 00:27:15;;;;;;;11.27;9.85;;;;;;;10.54;59.51;100558.59;10306201;28;20065;-82
2022/04/15 00:32:17;;;;;;;12.30;10.07;;;;;;;10.33;60.13;100560.50;10316586;28;20214;-82
2022/04/15 00:37:19;;;;;;;14.48;9.73;;;;;;;10.29;60.26;100561.56;10323551;28;20046;-81
2022/04/15 00:42:21;;;;;;;14.15;10.13;;;;;;;10.29;60.12;100553.72;10323739;28;20046;-82
2022/04/15 00:47:29;;;;;;;14.20;10.15;;;;;;;10.24;60.51;100557.47;10323455;28;20062;-82
2022/04/15 00:52:37;;;;;;;15.75;10.20;;;;;;;10.19;60.63;100559.47;10321231;28;20077;-82
2022/04/15 00:57:44;;;;;;;14.38;10.40;;;;;;;10.10;60.74;100559.91;10322222;28;20054;-82
2022/04/15 01:02:46;;;;;;;16.33;11.07;;;;;;;10.04;60.92;100557.59;10319782;28;20050;-82
2022/04/15 01:07:50;;;;;;;14.57;11.00;;;;;;;9.90;61.33;100560.00;10321019;28;20061;-81
2022/04/15 01:12:54;;;;;;;14.93;11.60;;;;;;;9.91;61.03;100566.94;10320726;28;20508;-82
2022/04/15 01:18:16;;;;;;;14.73;10.82;;;;;;;9.90;61.12;100562.63;10321491;28;20050;-82
2022/04/15 01:23:19;;;;;;;14.95;11.65;;;;;;;9.89;61.06;100568.78;10304116;28;20502;-82
2022/04/15 01:28:20;;;;;;;15.57;12.15;;;;;;;9.60;61.13;100578.78;10320094;28;20050;-82
2022/04/15 01:33:22;;;;;;;14.55;12.85;;;;;;;9.53;61.57;100572.13;10321078;28;20451;-82
2022/04/15 01:38:28;;;;;;;15.45;12.07;;;;;;;9.55;61.52;100578.13;10321267;28;20069;-82
2022/04/15 01:43:30;;;;;;;18.42;11.40;;;;;;;9.57;61.36;100588.50;10320543;28;20570;-82
2022/04/15 01:48:32;;;;;;;18.38;12.40;;;;;;;9.56;61.49;100585.03;10319752;28;20058;-82
2022/04/15 01:53:33;;;;;;;15.15;11.23;;;;;;;9.50;61.52;100590.53;10319392;28;20050;-82
2022/04/15 01:58:35;;;;;;;12.93;10.77;;;;;;;9.46;61.60;100586.34;10319987;28;20459;-82
2022/04/15 02:03:37;;;;;;;15.75;11.30;;;;;;;9.38;61.44;100588.47;10317515;28;20125;-82
2022/04/15 02:08:39;;;;;;;16.38;11.68;;;;;;;9.34;61.36;100594.72;10317025;28;20089;-82
2022/04/15 02:13:40;;;;;;;15.93;10.75;;;;;;;9.31;61.71;100591.41;10314488;28;20508;-82
2022/04/15 02:18:42;;;;;;;13.25;11.50;;;;;;;9.26;61.52;100599.44;10314375;28;20050;-82
2022/04/15 02:23:44;;;;;;;14.93;12.30;;;;;;;9.24;62.12;100613.50;10314384;28;20707;-82
2022/04/15 02:28:46;;;;;;;16.88;12.55;;;;;;;9.37;62.26;100605.06;10315921;28;20085;-82
2022/04/15 02:33:48;;;;;;;19.35;13.93;;;;;;;9.60;61.88;100604.88;10317348;28;20697;-82
2022/04/15 02:38:50;;;;;;;17.85;13.38;;;;;;;9.56;61.61;100613.75;10331420;28;20073;-82
2022/04/15 02:43:52;;;;;;;15.15;12.73;;;;;;;9.52;61.64;100609.56;10318905;28;20546;-82
2022/04/15 02:49:49;;;;;;;16.17;12.27;;;;;;;9.40;62.21;100611.91;10316913;28;20523;-82
2022/04/15 02:54:51;;;;;;;15.20;12.98;;;;;;;9.42;61.55;100625.75;10318387;28;20519;-82
2022/04/15 02:59:53;;;;;;;20.50;15.95;;;;;;;9.37;61.60;100627.69;10319292;28;20842;-82
2022/04/15 03:04:54;;;;;;;18.42;13.95;;;;;;;9.37;61.69;100625.09;10318516;28;20062;-82
2022/04/15 03:09:56;;;;;;;16.63;12.95;;;;;;;9.33;61.97;100626.13;10315530;28;20097;-81
2022/04/15 03:14:58;;;;;;;15.80;12.38;;;;;;;9.27;61.88;100624.66;10317653;28;20046;-81
2022/04/15 03:20:02;;;;;;;15.90;12.60;;;;;;;9.35;61.48;100622.53;10318505;28;20105;-81
2022/04/15 03:25:06;;;;;;;17.00;14.48;;;;;;;9.35;61.49;100632.13;10319798;28;20078;-81
2022/04/15 03:30:09;;;;;;;20.48;13.93;;;;;;;9.19;61.58;100629.34;10325358;28;20100;-81
2022/04/15 03:35:11;;;;;;;17.45;13.80;;;;;;;9.18;61.71;100635.47;10325237;28;20046;-81
2022/04/15 03:40:13;;;;;;;16.33;12.60;;;;;;;9.21;61.43;100642.31;10324761;28;20086;-81
2022/04/15 03:45:18;;;;;;;17.33;14.13;;;;;;;9.20;61.59;100640.66;10325427;28;20499;-81
2022/04/15 03:50:21;;;;;;;18.77;14.25;;;;;;;9.17;61.97;100646.84;10324429;28;20058;-81
2022/04/15 03:55:24;;;;;;;16.23;12.40;;;;;;;9.10;61.85;100642.78;10324814;28;20472;-82
2022/04/15 04:00:26;;;;;;;19.65;14.65;;;;;;;9.00;62.00;100638.00;10324151;28;20054;-81
2022/04/15 04:05:32;;;;;;;19.25;14.20;;;;;;;8.91;62.14;100649.69;10323912;28;20046;-81
2022/04/15 04:10:33;;;;;;;24.35;15.57;;;;;;;8.80;62.28;100650.13;10307168;28;20147;-81
2022/04/15 04:15:35;;;;;;;21.02;15.52;;;;;;;8.73;62.07;100645.22;10323215;28;20472;-81
2022/04/15 04:20:37;;;;;;;17.25;13.27;;;;;;;8.63;62.53;100643.88;10324060;28;20105;-81
2022/04/15 04:25:39;;;;;;;20.55;15.95;;;;;;;8.56;62.69;100637.25;10323928;28;20050;-81
2022/04/15 04:30:41;;;;;;;23.65;17.20;;;;;;;8.49;62.88;100647.06;10322555;28;20580;-81
2022/04/15 04:35:43;;;;;;;20.70;15.15;;;;;;;8.55;62.95;100653.78;10320983;28;20050;-81
2022/04/15 04:40:46;;;;;;;19.45;15.68;;;;;;;8.61;62.87;100666.56;10323248;28;20879;-81
2022/04/15 04:45:48;;;;;;;20.10;16.30;;;;;;;8.55;62.74;100662.44;10323824;28;20076;-81
2022/04/15 04:50:50;;;;;;;21.05;16.83;;;;;;;8.45;63.01;100673.31;10323296;28;20105;-81
2022/04/15 04:55:52;;;;;;;20.17;17.33;;;;;;;8.45;62.99;100686.34;10322271;28;20082;-81
2022/04/15 05:00:54;;;;;;;22.25;16.38;;;;;;;8.52;62.66;100682.59;10321535;28;20090;-81
2022/04/15 05:05:56;;;;;;;25.10;19.38;;;;;;;8.47;62.40;100692.34;10322243;28;20046;-81
2022/04/15 05:10:57;;;;;;;22.45;18.10;;;;;;;8.39;63.00;100692.66;10318235;28;20504;-81
2022/04/15 05:15:59;;;;;;;22.15;17.08;;;;;;;8.58;62.94;100695.38;10320187;28;20081;-81
2022/04/15 05:21:01;;;;;;;21.65;18.42;;;;;;;8.85;62.49;100705.56;10318927;28;20144;-81
2022/04/15 05:26:03;;;;;;;21.80;18.50;;;;;;;9.06;62.16;100706.44;10322170;28;20104;-82
2022/04/15 05:31:05;;;;;;;21.88;17.30;;;;;;;9.27;61.84;100705.56;10320988;28;20105;-81
2022/04/15 05:36:07;;;;;;;19.27;17.00;;;;;;;9.34;61.41;100706.97;10317731;28;20400;-81
2022/04/15 05:41:09;;;;;;;20.90;16.50;;;;;;;9.36;61.57;100715.59;10320773;28;20957;-81
2022/04/15 05:46:11;;;;;;;20.25;17.05;;;;;;;9.32;61.71;100723.66;10321554;28;20050;-81
2022/04/15 05:51:12;;;;;;;21.88;17.58;;;;;;;9.47;61.66;100722.97;10303457;28;20054;-81
2022/04/15 05:56:14;;;;;;;19.98;17.42;;;;;;;9.53;61.35;100726.19;10320058;28;20108;-81
2022/04/15 06:01:17;;;;;;;24.13;18.25;;;;;;;9.63;61.29;100730.09;10320665;28;20090;-81
2022/04/15 06:06:18;;;;;;;21.13;17.88;;;;;;;9.72;61.59;100728.88;10319973;28;20193;-82
2022/04/15 06:11:21;;;;;;;24.40;18.02;;;;;;;9.77;61.58;100734.75;10319208;28;20094;-81
2022/04/15 06:16:56;;;;;;;22.00;18.27;;;;;;;9.86;61.92;100741.34;10318080;28;20480;-81
2022/04/15 06:21:59;;;;;;;21.10;17.90;;;;;;;10.03;61.48;100739.69;10317725;28;20508;-81
2022/04/15 06:27:02;;;;;;;23.85;21.13;;;;;;;10.21;61.49;100743.22;10317981;28;20144;-81
2022/04/15 06:32:05;;;;;;;27.00;22.33;;;;;;;10.28;61.77;100747.25;10319006;28;20089;-81
2022/04/15 06:37:06;;;;;;;42.95;32.40;;;;;;;10.31;61.71;100749.75;10318493;28;20472;-81
2022/04/15 06:42:08;;;;;;;27.70;22.95;;;;;;;10.52;61.64;100747.91;10318871;28;20054;-81
2022/04/15 06:47:10;;;;;;;25.50;19.83;;;;;;;10.83;61.02;100743.75;10316997;28;20046;-83
2022/04/15 06:52:13;;;;;;;21.20;18.77;;;;;;;11.08;60.27;100753.94;10313540;28;20611;-83
2022/04/15 06:57:15;;;;;;;23.13;19.17;;;;;;;11.19;60.41;100749.84;10311671;28;20239;-82
2022/04/15 07:02:18;;;;;;;21.67;17.63;;;;;;;11.32;60.48;100751.88;10309800;28;20146;-82
2022/04/15 07:07:19;;;;;;;22.88;17.48;;;;;;;11.41;60.15;100760.13;10312945;28;20431;-82
2022/04/15 07:12:21;;;;;;;22.30;15.82;;;;;;;11.63;59.56;100760.72;10312135;28;21016;-82
2022/04/15 07:17:24;;;;;;;19.30;14.38;;;;;;;11.94;58.84;100757.38;10291173;28;20368;-82
2022/04/15 07:22:26;;;;;;;18.27;12.57;;;;;;;12.18;58.33;100757.84;10311394;28;20133;-82
2022/04/15 07:27:28;;;;;;;16.92;12.60;;;;;;;12.57;57.52;100759.22;10315562;28;20053;-82
2022/04/15 07:32:29;;;;;;;15.73;11.02;;;;;;;12.81;56.57;100752.59;10310680;28;20465;-82
2022/04/15 07:37:31;;;;;;;14.20;9.13;;;;;;;13.37;55.21;100762.50;10296400;28;20050;-82
2022/04/15 07:42:33;;;;;;;11.65;7.47;;;;;;;14.42;51.90;100754.38;10293299;28;20050;-82
2022/04/15 07:47:35;;;;;;;11.13;5.68;;;;;;;15.32;49.51;100759.03;10312984;28;20058;-82
2022/04/15 07:52:56;;;;;;;8.60;4.72;;;;;;;15.83;46.40;100759.13;10298872;28;20137;-83
2022/04/15 07:57:58;;;;;;;8.30;5.25;;;;;;;16.39;46.10;100763.09;10314056;28;20050;-83
2022/04/15 08:03:00;;;;;;;9.13;5.90;;;;;;;16.64;44.48;100755.16;10313682;28;20047;-83
2022/04/15 08:08:02;;;;;;;9.20;5.50;;;;;;;17.04;43.22;100760.09;10315851;28;20058;-83
2022/04/15 08:13:05;;;;;;;8.75;5.25;;;;;;;17.32;42.75;100760.69;10316922;28;20053;-82
2022/04/15 08:18:07;;;;;;;8.38;4.30;;;;;;;17.56;41.90;100765.03;10318252;28;20050;-82
2022/04/15 08:23:09;;;;;;;6.80;3.95;;;;;;;17.47;41.40;100765.72;10322759;28;20050;-82
2022/04/15 08:28:11;;;;;;;7.88;3.97;;;;;;;17.82;41.16;100768.31;10319382;28;20054;-82
2022/04/15 08:33:13;;;;;;;8.77;3.60;;;;;;;18.37;39.32;100767.56;10321707;28;20404;-82
2022/04/15 08:38:15;;;;;;;7.97;2.58;;;;;;;18.30;39.13;100771.66;10322506;28;20109;-82
2022/04/15 08:43:17;;;;;;;6.18;3.10;;;;;;;18.26;38.97;100772.88;10304248;28;20096;-82
2022/04/15 08:48:18;;;;;;;5.15;2.50;;;;;;;18.42;38.07;100776.81;10321306;28;20109;-82
2022/04/15 08:53:22;;;;;;;6.28;2.53;;;;;;;18.42;37.55;100765.41;10319903;28;20082;-82
2022/04/15 08:58:27;;;;;;;8.23;3.20;;;;;;;18.69;37.49;100772.97;10304794;28;20136;-82
2022/04/15 09:03:28;;;;;;;6.95;3.40;;;;;;;18.87;37.15;100767.00;10318236;28;20136;-82
2022/04/15 09:08:30;;;;;;;6.40;3.05;;;;;;;18.98;36.49;100759.03;10319564;28;20161;-82
2022/04/15 09:13:34;;;;;;;5.75;3.35;;;;;;;18.43;37.09;100772.38;10315104;28;20070;-83
2022/04/15 09:18:36;;;;;;;6.47;2.95;;;;;;;19.13;35.73;100780.84;10311051;28;20054;-83
2022/04/15 09:23:48;;;;;;;5.10;2.80;;;;;;;18.60;37.11;100772.75;10311905;28;20500;-82
2022/04/15 09:28:51;;;;;;;5.95;2.47;;;;;;;18.84;36.78;100784.97;10316423;28;20054;-82
2022/04/15 09:33:58;;;;;;;5.13;2.50;;;;;;;18.79;36.18;100785.34;10316127;28;20050;-82
2022/04/15 09:39:11;;;;;;;4.43;2.40;;;;;;;18.16;37.32;100796.53;10310723;28;20054;-82
2022/04/15 09:44:13;;;;;;;8.38;2.78;;;;;;;18.71;36.77;100793.06;10316427;28;20056;-81
2022/04/15 09:49:14;;;;;;;6.03;2.30;;;;;;;19.54;35.57;100788.03;10316878;28;20137;-82
2022/04/15 09:54:23;;;;;;;7.28;2.70;;;;;;;18.83;35.79;100791.25;10314023;28;20077;-82
2022/04/15 09:59:27;;;;;;;4.85;2.17;;;;;;;18.81;36.53;100790.53;10312923;28;20046;-82
2022/04/15 10:04:29;;;;;;;3.95;2.08;;;;;;;19.77;35.55;100785.13;10316677;28;20050;-82
2022/04/15 10:09:37;;;;;;;5.38;1.95;;;;;;;19.60;34.51;100783.06;10318144;28;20090;-82
2022/04/15 10:14:39;;;;;;;4.55;1.90;;;;;;;19.69;34.78;100770.81;10318142;28;20136;-82
2022/04/15 10:19:44;;;;;;;6.32;2.10;;;;;;;18.79;36.00;100780.03;10314954;28;20050;-82
2022/04/15 10:24:47;;;;;;;5.03;1.65;;;;;;;18.58;35.91;100781.75;10313321;28;20046;-82
2022/04/15 10:30:19;;;;;;;7.88;2.35;;;;;;;18.83;35.44;100770.03;10313347;28;20081;-82
2022/04/15 10:35:22;;;;;;;4.28;1.98;;;;;;;18.34;35.84;100773.94;10314505;28;20496;-82
2022/04/15 10:40:31;;;;;;;4.28;1.90;;;;;;;18.68;35.53;100766.81;10314721;28;20120;-82
2022/04/15 10:45:37;;;;;;;4.90;2.10;;;;;;;18.49;35.47;100761.28;10315861;28;20109;-83
2022/04/15 10:50:41;;;;;;;4.85;1.92;;;;;;;18.17;36.07;100765.59;10316405;28;20061;-82
2022/04/15 10:55:47;;;;;;;5.68;2.25;;;;;;;17.78;36.82;100764.22;10315564;28;20077;-83
2022/04/15 11:01:17;;;;;;;6.32;2.05;;;;;;;17.94;36.99;100761.25;10317379;28;20116;-82
2022/04/15 11:06:26;;;;;;;4.78;2.20;;;;;;;17.59;36.12;100759.50;10307937;28;20069;-82
2022/04/15 11:11:35;;;;;;;4.75;2.15;;;;;;;18.23;36.10;100750.13;10307665;28;20066;-82
2022/04/15 11:16:48;;;;;;;4.70;2.22;;;;;;;18.10;36.04;100751.16;10310716;28;20050;-82
2022/04/15 11:21:51;;;;;;;5.38;2.28;;;;;;;17.97;36.26;100748.63;10293130;28;20058;-82
2022/04/15 11:27:01;;;;;;;5.88;2.42;;;;;;;18.29;35.53;100746.13;10310242;28;20108;-83
2022/04/15 11:32:07;;;;;;;4.32;2.17;;;;;;;18.08;34.92;100750.41;10304247;28;20054;-82
2022/04/15 11:37:09;;;;;;;6.65;2.20;;;;;;;18.40;34.49;100751.44;10309001;28;20045;-83
2022/04/15 11:42:14;;;;;;;5.80;2.40;;;;;;;18.32;35.35;100749.38;10309574;28;20050;-82
2022/04/15 11:47:19;;;;;;;5.75;2.47;;;;;;;18.27;34.97;100740.13;10312216;28;20038;-82
2022/04/15 11:52:26;;;;;;;6.90;4.15;;;;;;;18.61;34.79;100745.25;10317111;28;20566;-83
2022/04/15 11:57:29;;;;;;;6.93;3.70;;;;;;;18.78;34.74;100730.66;10317447;28;20057;-83
2022/04/15 12:02:31;;;;;;;3.72;2.10;;;;;;;19.13;34.96;100741.06;10311883;28;20057;-82
2022/04/15 12:07:35;;;;;;;9.43;2.70;;;;;;;18.90;34.45;100745.56;10293506;28;20386;-82
2022/04/15 12:12:40;;;;;;;6.78;2.88;;;;;;;18.92;33.78;100743.63;10313403;28;20058;-82
2022/04/15 12:17:47;;;;;;;6.47;2.88;;;;;;;18.63;35.04;100738.03;10312962;28;20054;-82
2022/04/15 12:23:00;;;;;;;4.82;2.70;;;;;;;18.86;33.72;100746.78;10309073;28;20085;-82
2022/04/15 12:29:47;;;;;;;6.50;3.30;;;;;;;19.00;32.95;100738.53;10312993;28;20133;-82
2022/04/15 12:33:31;;;;;;;7.05;3.35;;;;;;;19.16;33.84;100740.78;10315430;28;20046;-82
2022/04/15 12:39:05;;;;;;;5.93;3.10;;;;;;;19.26;33.78;100739.06;10314662;28;20397;-82
2022/04/15 12:44:30;;;;;;;4.85;2.78;;;;;;;19.01;34.17;100732.25;10307760;28;20149;-82
2022/04/15 12:49:35;;;;;;;10.85;3.15;;;;;;;19.04;33.84;100734.69;10310155;28;20101;-83
2022/04/15 12:55:01;;;;;;;5.63;3.13;;;;;;;19.15;33.31;100728.53;10312630;28;20110;-82
2022/04/15 13:00:11;;;;;;;5.55;3.17;;;;;;;19.05;34.17;100728.44;10312087;28;20050;-83
2022/04/15 13:05:13;;;;;;;5.97;3.17;;;;;;;18.74;34.11;100731.88;10312630;28;20405;-83
2022/04/15 13:10:16;;;;;;;5.75;3.70;;;;;;;18.30;35.02;100727.47;10315637;28;20062;-82
2022/04/15 13:15:38;;;;;;;5.45;2.78;;;;;;;18.38;35.17;100729.53;10312779;28;20060;-83
2022/04/15 13:20:41;;;;;;;5.35;2.83;;;;;;;18.57;34.26;100727.94;10298129;28;20062;-83
2022/04/15 13:25:43;;;;;;;5.28;2.60;;;;;;;18.57;34.78;100716.47;10314980;28;20046;-83
2022/04/15 13:30:45;;;;;;;5.10;2.33;;;;;;;18.77;33.36;100721.00;10314863;28;20508;-83
2022/04/15 13:35:47;;;;;;;5.55;2.63;;;;;;;18.85;33.56;100709.81;10313153;28;20098;-83
2022/04/15 13:40:49;;;;;;;5.53;2.65;;;;;;;18.55;34.17;100718.41;10313514;28;20142;-83
2022/04/15 13:45:51;;;;;;;4.78;2.67;;;;;;;18.68;33.75;100705.88;10312586;28;20138;-83
2022/04/15 13:50:54;;;;;;;4.93;2.90;;;;;;;18.75;33.83;100703.56;10297222;28;20408;-83
2022/04/15 14:01:26;;;;;;;5.40;2.58;;;;;;;18.90;33.71;100705.81;10314080;28;20136;-83
2022/04/15 14:06:28;;;;;;;5.07;2.50;;;;;;;18.82;34.15;100700.28;10314503;28;20138;-82
2022/04/15 14:11:34;;;;;;;6.13;3.30;;;;;;;19.02;33.90;100703.97;10310298;28;20547;-83
2022/04/15 14:16:36;;;;;;;5.40;3.25;;;;;;;18.80;34.21;100710.19;10309130;28;20132;-83
2022/04/15 14:21:40;;;;;;;4.53;2.90;;;;;;;18.83;34.31;100687.88;10312451;28;20509;-82
2022/04/15 14:26:42;;;;;;;5.63;3.30;;;;;;;19.09;33.86;100697.22;10313319;28;20047;-83
2022/04/15 14:31:44;;;;;;;5.60;3.50;;;;;;;18.77;33.67;100702.47;10310508;28;20145;-83
2022/04/15 14:36:46;;;;;;;6.43;3.92;;;;;;;18.44;33.62;100695.44;10295943;28;20141;-82
2022/04/15 14:41:48;;;;;;;6.30;3.50;;;;;;;18.36;33.98;100708.44;10311900;28;20521;-83
2022/04/15 14:47:21;;;;;;;6.10;3.85;;;;;;;18.33;32.71;100707.84;10312347;28;20459;-83
2022/04/15 14:52:23;;;;;;;6.30;3.83;;;;;;;18.46;33.44;100708.56;10312187;28;20890;-83
2022/04/15 14:57:25;;;;;;;7.38;3.85;;;;;;;18.67;33.42;100708.66;10309977;28;20570;-83
2022/04/15 15:02:27;;;;;;;6.53;3.72;;;;;;;18.73;33.61;100701.03;10311285;28;20085;-82
2022/04/15 15:07:28;;;;;;;5.75;3.97;;;;;;;18.56;33.72;100707.69;10310942;28;20054;-83
2022/04/15 15:12:30;;;;;;;6.32;3.70;;;;;;;18.62;33.86;100698.41;10309963;28;20097;-83
2022/04/15 15:17:32;;;;;;;5.55;3.60;;;;;;;18.86;34.26;100700.88;10294645;28;20156;-83
2022/04/15 15:22:34;;;;;;;5.40;3.30;;;;;;;18.74;33.29;100699.22;10316018;28;20681;-83
2022/04/15 15:32:57;;;;;;;5.97;2.88;;;;;;;18.51;33.03;100701.94;10318869;28;20050;-83
2022/04/15 15:37:58;;;;;;;3.85;2.55;;;;;;;18.72;33.24;100696.72;10300129;28;20473;-83
2022/04/15 15:43:02;;;;;;;3.70;2.60;;;;;;;18.72;32.51;100703.81;10318470;28;20070;-83
2022/04/15 15:48:05;;;;;;;5.20;2.30;;;;;;;18.78;32.72;100705.97;10314699;28;20425;-83
2022/04/15 15:53:08;;;;;;;3.60;2.17;;;;;;;18.92;32.00;100703.88;10315822;28;20062;-83
2022/04/15 15:58:11;;;;;;;4.07;2.00;;;;;;;18.97;32.06;100704.31;10315823;28;20105;-83
2022/04/15 16:03:14;;;;;;;3.83;2.03;;;;;;;18.80;32.64;100704.03;10315977;28;20074;-82
2022/04/15 16:08:16;;;;;;;4.35;1.60;;;;;;;18.66;32.67;100710.47;10314912;28;20062;-83
2022/04/15 16:13:18;;;;;;;3.65;1.95;;;;;;;18.75;33.02;100711.53;10314790;28;20089;-83
2022/04/15 16:18:20;;;;;;;3.22;1.55;;;;;;;18.57;33.27;100727.06;10314459;28;20131;-83
2022/04/15 16:23:22;;;;;;;4.22;1.70;;;;;;;18.61;33.25;100721.41;10317089;28;20945;-83
2022/04/15 16:28:24;;;;;;;4.70;2.47;;;;;;;18.54;34.58;100745.88;10317672;28;20050;-83
2022/04/15 16:33:27;;;;;;;4.82;2.97;;;;;;;18.20;35.98;100738.94;10316665;28;20164;-82
2022/04/15 16:38:28;;;;;;;4.53;2.80;;;;;;;17.89;36.49;100755.47;10312630;28;20129;-83
2022/04/15 16:43:31;;;;;;;4.32;2.60;;;;;;;17.40;37.04;100766.28;10313241;28;20538;-83
2022/04/15 16:48:33;;;;;;;4.80;2.80;;;;;;;16.98;37.54;100779.03;10312968;28;20105;-82
2022/04/15 16:53:35;;;;;;;5.78;2.63;;;;;;;16.94;37.44;100789.94;10313301;28;20500;-82
2022/04/15 16:58:48;;;;;;;3.25;2.25;;;;;;;16.81;37.53;100799.72;10314600;28;20134;-82
2022/04/15 17:03:52;;;;;;;6.45;2.50;;;;;;;16.15;38.00;100802.63;10305884;28;20053;-81
2022/04/15 17:08:56;;;;;;;6.38;2.50;;;;;;;15.94;38.59;100799.66;10306276;28;20062;-81
2022/04/15 17:13:58;;;;;;;3.88;2.22;;;;;;;15.67;39.49;100812.09;10310735;28;20050;-81
2022/04/15 17:18:59;;;;;;;4.07;2.20;;;;;;;15.34;39.43;100815.13;10309185;28;20056;-81
2022/04/15 17:24:02;;;;;;;5.78;2.40;;;;;;;14.85;40.12;100831.53;10307383;28;20046;-81
2022/04/15 17:29:08;;;;;;;4.63;1.98;;;;;;;14.76;40.75;100838.22;10309792;28;21223;-81
2022/04/15 17:34:11;;;;;;;4.78;2.17;;;;;;;14.81;40.37;100835.31;10306749;28;21036;-81
2022/04/15 17:39:13;;;;;;;4.35;2.00;;;;;;;14.69;40.40;100846.59;10307687;28;20074;-81
2022/04/15 17:44:16;;;;;;;3.85;2.10;;;;;;;14.61;40.31;100857.63;10308125;28;20587;-81
2022/04/15 17:49:17;;;;;;;4.55;1.83;;;;;;;14.11;40.95;100868.53;10303382;28;20141;-81
2022/04/15 17:54:19;;;;;;;6.32;1.70;;;;;;;13.62;41.77;100881.06;10304795;28;20761;-81
2022/04/15 17:59:21;;;;;;;3.15;1.75;;;;;;;13.34;42.21;100882.69;10304196;28;20132;-81
2022/04/15 18:04:25;;;;;;;3.47;1.70;;;;;;;13.16;42.14;100892.44;10285578;28;20128;-81
2022/04/15 18:09:27;;;;;;;5.13;1.70;;;;;;;13.04;42.83;100890.50;10301228;28;20108;-79
2022/04/15 18:14:29;;;;;;;4.20;1.70;;;;;;;12.81;43.05;100907.50;10301978;28;20597;-80
2022/04/15 18:19:30;;;;;;;3.05;1.70;;;;;;;12.62;43.42;100922.50;10285252;28;20143;-80
2022/04/15 18:24:34;;;;;;;2.80;1.67;;;;;;;12.36;43.86;100923.00;10301820;28;20145;-80
2022/04/15 18:29:36;;;;;;;2.60;1.70;;;;;;;12.36;43.93;100941.38;10303355;28;20137;-80
2022/04/15 18:34:38;;;;;;;2.70;1.70;;;;;;;12.34;43.90;100939.75;10304367;28;20149;-80
2022/04/15 18:39:40;;;;;;;3.55;1.80;;;;;;;12.06;44.03;100949.00;10303879;28;20053;-81
2022/04/15 18:44:42;;;;;;;3.63;1.88;;;;;;;11.97;44.75;100959.06;10292748;28;20058;-80
2022/04/15 18:55:07;;;;;;;3.10;1.90;;;;;;;11.82;44.83;100960.69;10308814;28;20054;-80
2022/04/15 19:00:11;;;;;;;2.92;1.70;;;;;;;11.78;45.00;100971.38;10303196;28;20077;-80
2022/04/15 19:05:13;;;;;;;2.88;1.80;;;;;;;11.74;45.07;100981.19;10306217;28;20104;-80
2022/04/15 19:10:15;;;;;;;3.28;1.75;;;;;;;11.77;45.38;100990.63;10289731;28;20152;-80
2022/04/15 19:15:16;;;;;;;2.53;1.60;;;;;;;11.71;45.47;100991.78;10308718;28;20121;-80
2022/04/15 19:20:18;;;;;;;2.95;1.90;;;;;;;11.62;45.62;101004.50;10305747;28;20568;-80
2022/04/15 19:25:20;;;;;;;3.05;1.90;;;;;;;11.46;45.33;101006.94;10306524;28;20042;-80
2022/04/15 19:30:22;;;;;;;3.20;2.08;;;;;;;11.43;46.20;101001.00;10308150;28;21040;-80
2022/04/15 19:35:24;;;;;;;3.30;1.98;;;;;;;11.46;45.88;101004.34;10304220;28;20136;-80
2022/04/15 19:40:26;;;;;;;2.83;1.85;;;;;;;11.36;46.26;101020.56;10306763;28;20535;-81
2022/04/15 19:45:28;;;;;;;3.22;1.70;;;;;;;11.38;46.69;101022.16;10305769;28;20551;-81
2022/04/15 19:50:31;;;;;;;3.17;1.70;;;;;;;11.39;46.50;101028.25;10306580;28;20050;-80
2022/04/15 19:55:33;;;;;;;3.28;2.03;;;;;;;11.25;46.79;101032.34;10306408;28;21080;-81
2022/04/15 20:05:57;;;;;;;3.50;2.00;;;;;;;10.74;47.64;101037.25;10305404;28;20068;-81
2022/04/15 20:10:59;;;;;;;3.33;2.00;;;;;;;10.61;48.34;101032.59;10314162;28;20128;-81
2022/04/15 20:16:00;;;;;;;2.95;1.95;;;;;;;10.42;48.26;101037.72;10313393;28;20120;-81
2022/04/15 20:21:11;;;;;;;4.75;2.38;;;;;;;9.82;49.71;101043.69;10314252;28;21087;-81
2022/04/15 20:26:14;;;;;;;3.70;2.10;;;;;;;9.87;49.86;101040.91;10310911;28;20904;-80
2022/04/15 20:31:16;;;;;;;4.00;2.13;;;;;;;9.97;49.67;101044.84;10298370;28;20058;-81
2022/04/15 20:36:18;;;;;;;5.00;2.30;;;;;;;9.91;49.64;101047.72;10314961;28;20060;-80
2022/04/15 20:41:21;;;;;;;4.20;2.40;;;;;;;9.84;50.20;101041.88;10314259;28;20386;-81
2022/04/15 20:46:23;;;;;;;6.07;2.40;;;;;;;9.88;50.24;101047.81;10313135;28;20721;-80
2022/04/15 20:51:34;;;;;;;3.45;2.35;;;;;;;9.64;50.73;101050.44;10315107;28;20054;-80
2022/04/15 20:56:35;;;;;;;3.15;2.00;;;;;;;9.64;50.75;101058.28;10314330;28;20046;-80
2022/04/15 21:01:37;;;;;;;3.72;2.47;;;;;;;9.72;50.94;101052.78;10296192;28;20516;-80
2022/04/15 21:06:39;;;;;;;4.05;2.58;;;;;;;9.71;50.83;101066.75;10315902;28;20046;-81
2022/04/15 21:11:41;;;;;;;4.30;2.60;;;;;;;9.58;51.12;101068.94;10315961;28;20090;-81
2022/04/15 21:16:44;;;;;;;3.88;2.60;;;;;;;9.37;51.86;101072.34;10313203;28;20145;-81
2022/04/15 21:21:46;;;;;;;4.28;2.65;;;;;;;9.24;52.01;101065.88;10312711;28;20109;-80
2022/04/15 21:26:47;;;;;;;4.05;2.90;;;;;;;9.08;52.22;101079.50;10313746;28;20073;-83
2022/04/15 21:31:49;;;;;;;4.80;2.60;;;;;;;9.08;52.61;101075.16;10297358;28;20070;-81
2022/04/15 21:36:53;;;;;;;3.63;2.60;;;;;;;9.00;52.33;101079.78;10312604;28;21081;-82
2022/04/15 21:41:57;;;;;;;4.63;2.95;;;;;;;8.95;52.42;101084.34;10312758;28;20050;-82
2022/04/15 21:46:59;;;;;;;4.97;3.00;;;;;;;8.98;52.87;101079.00;10311805;28;20085;-82
2022/04/15 21:57:22;;;;;;;5.37;3.03;;;;;;;8.94;52.78;101085.22;10312290;28;20073;-82
2022/04/15 22:02:24;;;;;;;5.55;3.55;;;;;;;8.92;52.81;101080.97;10312713;28;20046;-81
2022/04/15 22:07:26;;;;;;;5.40;3.60;;;;;;;8.90;53.00;101083.63;10312652;28;20120;-82
2022/04/15 22:12:28;;;;;;;4.60;3.00;;;;;;;8.91;52.84;101087.09;10312353;28;20085;-81
2022/04/15 22:17:30;;;;;;;4.45;3.08;;;;;;;8.67;52.95;101088.78;10313071;28;20089;-81
2022/04/15 22:22:31;;;;;;;4.50;2.80;;;;;;;8.44;53.14;101096.53;10311376;28;20511;-82
2022/04/15 22:27:34;;;;;;;5.35;3.50;;;;;;;8.31;53.66;101101.28;10311852;28;20059;-81
2022/04/15 22:32:35;;;;;;;4.75;2.72;;;;;;;8.35;53.91;101102.88;10310570;28;20097;-81
2022/04/15 22:37:40;;;;;;;5.22;3.22;;;;;;;8.38;53.94;101108.00;10291559;28;20057;-81
2022/04/15 22:42:43;;;;;;;5.90;3.40;;;;;;;8.33;54.17;101111.63;10311263;28;20477;-81
2022/04/15 22:47:48;;;;;;;6.07;3.50;;;;;;;8.15;54.30;101109.59;10311824;28;20104;-81
2022/04/15 22:52:50;;;;;;;5.03;3.20;;;;;;;8.16;54.46;101116.53;10311700;28;20062;-81
2022/04/15 22:57:56;;;;;;;4.20;3.08;;;;;;;8.20;54.27;101128.56;10309517;28;20458;-82
2022/04/15 23:03:03;;;;;;;;;;;;;;;7.84;55.17;101128.75;10311423;28;20073;-81
2022/04/15 23:08:05;;;;;;;5.28;3.55;;;;;;;8.09;54.67;101128.00;10310755;28;19968;-81
2022/04/15 23:13:10;;;;;;;5.25;3.50;;;;;;;8.10;55.10;101125.38;10308854;28;20098;-81
2022/04/15 23:18:12;;;;;;;5.05;3.40;;;;;;;7.97;55.14;101124.91;10308221;28;20050;-81
2022/04/15 23:23:13;;;;;;;5.80;3.40;;;;;;;7.89;55.33;101133.81;10308649;28;20062;-81
2022/04/15 23:28:15;;;;;;;7.07;3.53;;;;;;;7.82;55.59;101133.16;10309361;28;20055;-81
2022/04/15 23:33:17;;;;;;;6.72;3.00;;;;;;;7.77;55.77;101134.19;10309620;28;20058;-81
2022/04/15 23:38:19;;;;;;;5.45;3.45;;;;;;;7.63;55.72;101126.75;10308550;28;20050;-81